Time;durP1;ratioP1;P1;durP2;ratioP2;P2;SDS_P1;SDS_P2;PMS_P1;PMS_P2;Temp;Humidity;BMP_temperature;BMP_pressure;BME280_temperature;BME280_humidity;BME280_pressure;Samples;Min_cycle;Max_cycle;Signal;HPM_P1;HPM_P2
2023/04/10 00:01:49;;;;;;;18.42;11.82;;;;;;;9.65;53.16;149722.03;5054744;28;20032;-65
2023/04/10 00:04:14;;;;;;;16.38;11.63;;;;;;;9.65;53.21;149720.75;5059627;28;20084;-64
2023/04/10 00:06:40;;;;;;;17.15;11.27;;;;;;;9.62;54.41;149714.34;5045444;28;20084;-65
2023/04/10 00:09:07;;;;;;;14.93;11.25;;;;;;;9.58;54.77;149702.81;5064696;28;20092;-65
2023/04/10 00:11:32;;;;;;;17.80;11.93;;;;;;;9.60;55.63;149709.19;5048923;28;20029;-65
2023/04/10 00:13:58;;;;;;;17.30;11.82;;;;;;;9.60;55.11;149709.19;5055738;28;20031;-65
2023/04/10 00:16:23;;;;;;;23.45;11.88;;;;;;;9.60;53.83;149707.94;5058259;28;20033;-65
2023/04/10 00:18:49;;;;;;;19.52;12.07;;;;;;;9.58;55.96;149702.81;5044770;28;20048;-65
2023/04/10 00:21:16;;;;;;;17.75;11.50;;;;;;;9.59;53.97;149706.66;5064433;28;20029;-64
2023/04/10 00:23:41;;;;;;;16.00;11.73;;;;;;;9.56;54.56;149698.94;5047669;28;20221;-65
2023/04/10 00:26:07;;;;;;;20.88;12.05;;;;;;;9.58;54.65;149702.81;5056479;28;20048;-65
2023/04/10 00:28:36;;;;;;;16.83;12.10;;;;;;;9.58;55.29;149702.81;5057097;28;20072;-66
2023/04/10 00:31:04;;;;;;;17.23;12.05;;;;;;;9.56;55.57;149698.94;5058540;28;20255;-66
2023/04/10 00:33:30;;;;;;;16.77;12.73;;;;;;;9.55;56.26;149696.41;5083308;28;20335;-64
2023/04/10 00:35:55;;;;;;;19.88;11.95;;;;;;;9.62;55.49;149713.03;5046567;28;20045;-65
2023/04/10 00:38:21;;;;;;;17.50;11.55;;;;;;;9.50;57.22;149684.88;5056738;28;20029;-65
2023/04/10 00:40:47;;;;;;;14.63;11.13;;;;;;;9.51;58.19;149686.16;5054600;28;20021;-63
2023/04/10 00:43:13;;;;;;;18.00;11.40;;;;;;;9.52;58.05;149687.41;5048566;28;20473;-65
2023/04/10 00:45:39;;;;;;;14.73;11.85;;;;;;;9.54;58.45;149693.84;5063305;28;20025;-65
2023/04/10 00:48:05;;;;;;;18.83;11.52;;;;;;;9.47;56.75;149677.16;5043747;28;20336;-65
2023/04/10 00:50:31;;;;;;;18.73;11.65;;;;;;;9.47;56.52;149677.16;5059078;28;20029;-67
2023/04/10 00:52:57;;;;;;;18.85;11.48;;;;;;;9.49;54.27;149682.31;5053244;28;20222;-65
2023/04/10 00:55:23;;;;;;;17.33;12.18;;;;;;;9.40;54.70;149657.97;5043117;28;20028;-65
2023/04/10 00:57:49;;;;;;;16.52;11.50;;;;;;;9.41;56.48;149661.81;5060232;28;20021;-64
2023/04/10 01:00:15;;;;;;;20.13;11.90;;;;;;;9.45;58.95;149672.06;5063387;28;20100;-66
2023/04/10 01:02:41;;;;;;;17.35;11.80;;;;;;;9.47;59.34;149677.16;5047114;28;20029;-66
2023/04/10 01:05:09;;;;;;;17.92;12.50;;;;;;;9.49;59.87;149681.00;5055371;28;20028;-65
2023/04/10 01:07:56;;;;;;;20.88;12.00;;;;;;;9.42;58.64;149664.38;5056403;28;20489;-65
2023/04/10 01:10:44;;;;;;;14.68;10.63;;;;;;;9.42;57.55;149663.06;5048746;28;20037;-64
2023/04/10 01:13:20;;;;;;;15.25;10.95;;;;;;;9.39;56.76;149655.38;5048986;28;20059;-64
2023/04/10 01:15:53;;;;;;;17.00;11.32;;;;;;;9.35;55.72;149645.13;5044117;28;20360;-65
2023/04/10 01:18:25;;;;;;;16.92;10.98;;;;;;;9.47;54.38;149677.16;5056975;28;20029;-64
2023/04/10 01:20:51;;;;;;;17.15;11.90;;;;;;;9.54;56.54;149692.56;5060840;28;20021;-65
2023/04/10 01:24:15;;;;;;;17.80;11.20;;;;;;;9.52;56.90;149688.72;5050270;28;20036;-66
2023/04/10 01:27:08;;;;;;;17.50;11.73;;;;;;;9.53;57.85;149691.25;5021224;28;20091;-65
2023/04/10 01:29:35;;;;;;;25.05;12.25;;;;;;;9.47;58.89;149677.16;5041260;28;20065;-64
2023/04/10 01:32:03;;;;;;;17.92;12.15;;;;;;;9.49;nan;149681.00;5052220;28;20112;-66
2023/04/10 01:34:42;;;;;;;19.98;12.40;;;;;;;9.44;60.36;149669.47;5055074;28;20079;-66
2023/04/10 01:37:12;;;;;;;24.13;12.73;;;;;;;9.43;59.63;149665.63;5038012;28;20040;-64
2023/04/10 01:39:41;;;;;;;20.23;12.40;;;;;;;9.41;59.50;149660.53;5021747;28;20030;-64
2023/04/10 01:42:09;;;;;;;19.67;12.90;;;;;;;9.42;59.61;149663.06;5041057;28;20033;-64
2023/04/10 01:44:40;;;;;;;20.00;12.23;;;;;;;9.51;58.23;149686.16;5025976;28;20046;-65
2023/04/10 01:47:07;;;;;;;22.23;12.13;;;;;;;9.49;59.31;149681.00;5032566;28;20048;-64
2023/04/10 01:49:36;;;;;;;19.17;12.20;;;;;;;9.41;60.59;149660.53;5034650;28;20466;-65
2023/04/10 01:52:02;;;;;;;19.83;12.18;;;;;;;9.48;60.34;149678.47;5023645;28;20061;-64
2023/04/10 01:54:30;;;;;;;17.33;10.55;;;;;;;9.51;57.69;149686.16;5041143;28;20033;-63
2023/04/10 01:56:58;;;;;;;18.10;12.02;;;;;;;9.42;58.08;149664.38;5030194;28;20073;-64
2023/04/10 01:59:24;;;;;;;23.50;12.38;;;;;;;9.49;58.54;149682.31;5060922;28;20691;-65
2023/04/10 02:01:58;;;;;;;23.65;12.57;;;;;;;9.49;59.03;149682.31;5058198;28;20029;-65
2023/04/10 02:04:25;;;;;;;19.75;12.52;;;;;;;9.50;60.47;149683.56;5052176;28;20249;-65
2023/04/10 02:07:03;;;;;;;18.58;11.80;;;;;;;9.38;59.80;149654.13;5066433;28;20091;-64
2023/04/10 02:09:48;;;;;;;20.27;11.35;;;;;;;9.32;56.83;149638.75;5047138;28;20060;-65
2023/04/10 02:12:29;;;;;;;22.52;11.48;;;;;;;9.46;57.73;149673.31;5046890;28;20083;-65
2023/04/10 02:15:00;;;;;;;23.98;12.65;;;;;;;9.40;59.25;149659.22;5064731;28;20095;-64
2023/04/10 02:17:28;;;;;;;19.88;12.10;;;;;;;9.42;59.68;149663.06;5052863;28;20053;-66
2023/04/10 02:19:56;;;;;;;19.15;11.85;;;;;;;9.57;57.47;149700.25;5056206;28;20021;-64
2023/04/10 02:22:24;;;;;;;20.35;11.02;;;;;;;9.54;57.90;149693.84;5061765;28;20080;-64
2023/04/10 02:24:50;;;;;;;20.25;12.00;;;;;;;9.49;57.69;149682.31;5047409;28;20084;-65
2023/04/10 02:27:33;;;;;;;19.88;11.35;;;;;;;9.55;58.42;149695.09;5066405;28;20032;-64
2023/04/10 02:29:59;;;;;;;24.08;11.73;;;;;;;9.53;58.80;149691.25;5051266;28;20272;-65
2023/04/10 02:32:26;;;;;;;17.92;11.75;;;;;;;9.48;56.66;149679.75;5066416;28;20055;-65
2023/04/10 02:34:51;;;;;;;16.45;11.45;;;;;;;9.48;57.46;149679.75;5057723;28;20242;-65
2023/04/10 02:37:17;;;;;;;20.88;11.57;;;;;;;9.52;56.56;149688.72;5046468;28;20037;-65
2023/04/10 02:39:43;;;;;;;30.88;12.40;;;;;;;9.53;58.25;149690.00;5046648;28;20048;-64
2023/04/10 02:42:08;;;;;;;21.02;11.90;;;;;;;9.49;57.06;149681.00;5065890;28;20032;-64
2023/04/10 02:44:34;;;;;;;20.90;11.35;;;;;;;9.53;57.50;149690.00;5051634;28;20040;-65
2023/04/10 02:47:00;;;;;;;23.50;12.40;;;;;;;9.50;56.87;149684.88;5056488;28;20567;-65
2023/04/10 02:49:26;;;;;;;23.27;12.43;;;;;;;9.51;56.66;149686.16;5060851;28;20044;-65
2023/04/10 02:51:51;;;;;;;20.42;11.43;;;;;;;9.56;57.23;149698.94;5046737;28;20033;-65
2023/04/10 02:54:17;;;;;;;22.20;12.30;;;;;;;9.62;57.90;149713.03;5066497;28;20029;-65
2023/04/10 02:56:42;;;;;;;21.25;13.75;;;;;;;9.61;57.31;149711.78;5050438;28;20359;-66
2023/04/10 02:59:08;;;;;;;32.72;13.73;;;;;;;9.64;57.50;149719.44;5057048;28;20171;-66
2023/04/10 03:01:34;;;;;;;30.77;13.75;;;;;;;9.60;57.07;149707.94;5059736;28;20025;-66
2023/04/10 03:04:02;;;;;;;24.98;14.68;;;;;;;9.66;58.58;149723.28;5047607;28;20062;-65
2023/04/10 03:06:28;;;;;;;30.02;14.55;;;;;;;9.53;57.83;149691.25;5065952;28;20028;-66
2023/04/10 03:08:53;;;;;;;22.38;12.82;;;;;;;9.50;56.16;149683.56;5047518;28;20116;-65
2023/04/10 03:11:19;;;;;;;28.33;13.15;;;;;;;9.59;56.27;149705.34;5057782;28;20039;-65
2023/04/10 03:13:45;;;;;;;24.00;12.27;;;;;;;9.52;55.51;149688.72;5058436;28;20025;-66
2023/04/10 03:16:10;;;;;;;44.03;13.95;;;;;;;9.60;56.84;149707.94;5045611;28;20037;-66
2023/04/10 03:18:36;;;;;;;21.95;12.32;;;;;;;9.57;56.67;149700.25;5044479;28;20034;-65
2023/04/10 03:21:02;;;;;;;29.75;12.25;;;;;;;9.52;56.34;149688.72;5063830;28;20021;-66
2023/04/10 03:23:27;;;;;;;44.47;14.88;;;;;;;9.56;57.27;149698.94;5052018;28;20048;-66
2023/04/10 03:25:53;;;;;;;44.90;14.93;;;;;;;9.71;57.41;149734.88;5045382;28;20097;-66
2023/04/10 03:28:20;;;;;;;38.63;15.50;;;;;;;9.80;57.99;149757.91;5049075;28;20044;-65
2023/04/10 03:30:46;;;;;;;25.73;13.25;;;;;;;9.80;58.26;149757.91;5065584;28;20032;-66
2023/04/10 03:33:11;;;;;;;30.98;13.35;;;;;;;9.80;58.39;149759.16;5085419;28;20033;-68
2023/04/10 03:35:37;;;;;;;26.67;13.45;;;;;;;9.96;57.80;149798.94;5071139;28;20025;-67
2023/04/10 03:38:02;;;;;;;30.20;12.52;;;;;;;10.10;57.33;149833.53;5054232;28;20025;-67
2023/04/10 03:40:28;;;;;;;36.10;14.52;;;;;;;10.19;57.50;149856.63;5050196;28;20206;-67
2023/04/10 03:42:54;;;;;;;30.63;15.23;;;;;;;10.31;58.84;149884.81;5064952;28;20092;-67
2023/04/10 03:45:19;;;;;;;33.42;13.43;;;;;;;10.26;59.96;149872.00;5060565;28;20108;-66
2023/04/10 03:47:45;;;;;;;24.00;14.10;;;;;;;10.14;60.53;149842.50;5060843;28;20088;-66
2023/04/10 03:50:11;;;;;;;24.42;13.00;;;;;;;10.23;60.50;149865.56;5054244;28;20056;-67
2023/04/10 03:52:37;;;;;;;32.85;13.57;;;;;;;10.39;57.92;149905.41;5050836;28;20084;-65
2023/04/10 03:55:02;;;;;;;21.38;13.25;;;;;;;10.37;58.21;149900.25;5063781;28;20055;-65
2023/04/10 03:57:28;;;;;;;25.35;14.15;;;;;;;10.43;60.42;149915.66;5045021;28;20041;-67
2023/04/10 03:59:54;;;;;;;28.10;14.07;;;;;;;10.43;60.18;149915.66;5061664;28;20029;-65
2023/04/10 04:02:19;;;;;;;25.95;13.77;;;;;;;10.49;59.91;149929.78;5068158;28;20292;-65
2023/04/10 04:04:45;;;;;;;26.52;13.52;;;;;;;10.54;58.67;149942.56;5052315;28;20035;-65
2023/04/10 04:07:12;;;;;;;19.40;13.18;;;;;;;10.48;55.54;149927.19;5062237;28;20055;-64
2023/04/10 04:09:38;;;;;;;22.95;14.43;;;;;;;10.54;53.51;149942.56;5044829;28;20064;-65
2023/04/10 04:12:03;;;;;;;26.67;14.13;;;;;;;10.61;56.23;149959.25;5061192;28;20029;-65
2023/04/10 04:14:29;;;;;;;28.80;13.57;;;;;;;10.63;55.81;149965.69;5043192;28;20028;-66
2023/04/10 04:16:55;;;;;;;22.23;13.65;;;;;;;10.61;55.05;149960.53;5044557;28;20040;-66
2023/04/10 04:19:20;;;;;;;22.85;13.52;;;;;;;10.63;55.71;149964.38;5048035;28;20033;-66
2023/04/10 04:21:46;;;;;;;25.08;14.00;;;;;;;10.69;53.84;149979.78;5064522;28;20028;-65
2023/04/10 04:24:11;;;;;;;28.10;13.68;;;;;;;10.66;51.89;149972.06;5045407;28;20029;-65
2023/04/10 04:26:37;;;;;;;22.75;14.77;;;;;;;10.82;53.92;150011.84;5058657;28;20036;-66
2023/04/10 04:29:02;;;;;;;36.70;15.15;;;;;;;10.87;55.48;150025.97;5054747;28;20068;-64
2023/04/10 04:31:31;;;;;;;24.17;13.63;;;;;;;11.06;52.84;150072.13;5059659;28;20094;-66
2023/04/10 04:34:00;;;;;;;28.30;15.57;;;;;;;11.19;52.59;150104.22;5063830;28;20033;-66
2023/04/10 04:36:26;;;;;;;24.70;14.98;;;;;;;11.30;52.57;150131.13;5044176;28;20210;-65
2023/04/10 04:38:55;;;;;;;40.22;16.65;;;;;;;11.35;54.15;150143.97;5044190;28;20088;-65
2023/04/10 04:41:20;;;;;;;28.23;15.43;;;;;;;11.45;51.78;150169.63;5037771;28;20053;-66
2023/04/10 04:43:46;;;;;;;24.85;15.18;;;;;;;11.58;51.39;150203.00;5057075;28;20029;-64
2023/04/10 04:46:12;;;;;;;30.92;16.05;;;;;;;11.66;54.11;150222.25;5046039;28;20032;-65
2023/04/10 04:48:38;;;;;;;29.20;15.63;;;;;;;11.67;52.35;150224.84;5063713;28;20036;-65
2023/04/10 04:51:05;;;;;;;38.30;17.33;;;;;;;11.73;52.24;150238.97;5046253;28;20144;-66
2023/04/10 04:53:31;;;;;;;39.33;16.95;;;;;;;11.77;51.78;150249.19;5043729;28;20088;-66
2023/04/10 04:55:57;;;;;;;33.25;15.82;;;;;;;12.05;51.95;150318.59;5052002;28;20044;-67
2023/04/10 04:58:23;;;;;;;31.08;15.63;;;;;;;12.13;50.83;150339.13;5075382;28;20032;-66
2023/04/10 05:00:50;;;;;;;41.63;16.70;;;;;;;12.14;50.47;150341.72;5050720;28;20067;-66
2023/04/10 05:03:16;;;;;;;22.45;14.10;;;;;;;12.41;49.56;150408.47;5044239;28;20233;-66
2023/04/10 05:05:42;;;;;;;24.00;14.90;;;;;;;12.47;49.76;150422.59;5057992;28;20089;-66
2023/04/10 05:08:08;;;;;;;23.83;13.82;;;;;;;12.59;48.82;150454.69;5053758;28;20033;-65
2023/04/10 05:10:33;;;;;;;25.13;14.48;;;;;;;12.73;48.29;150488.13;5048338;28;20041;-65
2023/04/10 05:12:59;;;;;;;27.90;15.50;;;;;;;12.78;47.36;150502.25;5063206;28;20029;-65
2023/04/10 05:15:25;;;;;;;34.38;15.95;;;;;;;12.66;48.76;150470.13;5043191;28;20037;-68
2023/04/10 05:17:51;;;;;;;23.17;13.93;;;;;;;12.88;48.13;150525.34;5043190;28;20357;-66
2023/04/10 05:20:18;;;;;;;23.90;14.60;;;;;;;12.99;47.94;150553.63;5054452;28;20047;-65
2023/04/10 05:22:43;;;;;;;33.13;16.13;;;;;;;13.07;48.81;150572.91;5057156;28;20036;-66
2023/04/10 05:25:09;;;;;;;22.10;14.25;;;;;;;13.03;47.58;150563.91;5060218;28;20218;-68
2023/04/10 05:27:35;;;;;;;23.50;13.43;;;;;;;13.17;48.07;150598.59;5063423;28;20035;-66
2023/04/10 05:30:01;;;;;;;27.13;15.05;;;;;;;13.23;47.05;150614.00;5049410;28;20256;-66
2023/04/10 05:32:28;;;;;;;23.60;13.18;;;;;;;13.52;47.02;150684.75;5076900;28;20024;-66
2023/04/10 05:34:54;;;;;;;18.00;14.05;;;;;;;13.73;45.49;150737.44;5075288;28;20264;-66
2023/04/10 05:37:19;;;;;;;20.55;13.77;;;;;;;13.57;44.64;150698.88;5062915;28;20440;-67
2023/04/10 05:39:45;;;;;;;18.65;13.10;;;;;;;13.63;44.65;150714.28;5062667;28;20041;-66
2023/04/10 05:42:10;;;;;;;23.33;13.82;;;;;;;13.52;45.06;150686.00;5044405;28;20041;-66
2023/04/10 05:44:36;;;;;;;17.05;12.55;;;;;;;13.80;45.00;150756.72;5055715;28;20310;-67
2023/04/10 05:47:02;;;;;;;21.15;12.63;;;;;;;14.42;43.82;150911.06;5053946;28;20025;-68
2023/04/10 05:49:27;;;;;;;19.90;13.70;;;;;;;14.69;44.28;150977.94;5042198;28;20129;-67
2023/04/10 05:51:53;;;;;;;20.88;12.05;;;;;;;14.94;42.37;151041.00;5042835;28;20304;-67
2023/04/10 05:54:18;;;;;;;19.55;13.43;;;;;;;15.10;42.86;151079.63;5041912;28;20241;-66
2023/04/10 05:56:44;;;;;;;20.92;12.77;;;;;;;15.36;41.93;151146.53;5042634;28;20045;-66
2023/04/10 05:59:11;;;;;;;22.73;13.38;;;;;;;15.30;41.24;151129.78;5052312;28;20028;-68
2023/04/10 06:01:36;;;;;;;22.02;13.48;;;;;;;15.38;40.88;151149.09;5063008;28;20095;-67
2023/04/10 06:04:02;;;;;;;21.35;13.02;;;;;;;15.44;40.54;151164.56;5064367;28;20021;-67
2023/04/10 06:06:28;;;;;;;16.23;12.10;;;;;;;15.43;41.84;151161.97;5068479;28;20240;-67
2023/04/10 06:08:54;;;;;;;20.08;12.75;;;;;;;15.61;40.69;151207.03;5068339;28;20028;-66
2023/04/10 06:11:20;;;;;;;23.77;13.15;;;;;;;15.52;40.83;151185.16;5068880;28;20032;-66
2023/04/10 06:13:46;;;;;;;25.23;13.10;;;;;;;15.66;40.75;151219.88;5069571;28;20084;-68
2023/04/10 06:16:13;;;;;;;18.90;13.05;;;;;;;15.60;39.75;151205.72;5069353;28;20221;-67
2023/04/10 06:18:39;;;;;;;18.70;12.65;;;;;;;15.79;40.82;151253.44;5071830;28;20268;-66
2023/04/10 06:21:05;;;;;;;18.70;12.23;;;;;;;15.77;40.78;151246.94;5071286;28;20023;-66
2023/04/10 06:23:31;;;;;;;18.25;13.48;;;;;;;15.55;39.99;151192.88;5071072;28;20086;-67
2023/04/10 06:25:57;;;;;;;20.83;11.18;;;;;;;14.93;39.95;151038.41;5074632;28;20032;-67
2023/04/10 06:28:22;;;;;;;36.15;11.35;;;;;;;14.65;40.50;150967.66;5079817;28;20053;-67
2023/04/10 06:30:48;;;;;;;19.63;11.05;;;;;;;14.83;40.28;151013.97;5062653;28;20093;-68
2023/04/10 06:33:15;;;;;;;20.38;11.50;;;;;;;14.72;41.17;150984.38;5062412;28;20099;-66
2023/04/10 06:35:41;;;;;;;17.65;10.70;;;;;;;14.60;40.24;150956.03;5049142;28;20108;-67
2023/04/10 06:38:07;;;;;;;16.60;11.07;;;;;;;14.56;40.82;150944.47;5042608;28;20060;-66
2023/04/10 06:40:33;;;;;;;18.60;10.50;;;;;;;14.75;42.09;150993.41;5046676;28;20088;-68
2023/04/10 06:42:59;;;;;;;17.17;11.00;;;;;;;14.51;41.28;150932.91;5062972;28;20089;-67
2023/04/10 06:45:25;;;;;;;18.92;11.55;;;;;;;14.42;41.38;150909.72;5046720;28;20029;-66
2023/04/10 06:47:51;;;;;;;13.57;10.45;;;;;;;14.50;40.57;150930.31;5046211;28;20120;-67
2023/04/10 06:50:17;;;;;;;18.23;10.65;;;;;;;14.79;41.36;151002.41;5056144;28;20036;-66
2023/04/10 06:52:47;;;;;;;27.17;12.40;;;;;;;14.86;40.92;151019.13;5060719;28;20030;-67
2023/04/10 06:55:12;;;;;;;20.30;10.77;;;;;;;14.92;40.57;151034.56;5047029;28;20033;-67
2023/04/10 06:57:39;;;;;;;19.58;11.75;;;;;;;14.82;40.95;151010.09;5066259;28;20035;-67
2023/04/10 07:00:06;;;;;;;22.30;11.70;;;;;;;14.92;40.87;151034.56;5049330;28;20021;-68
2023/04/10 07:02:31;;;;;;;20.15;11.90;;;;;;;15.09;40.82;151077.03;5057688;28;20028;-67
2023/04/10 07:04:57;;;;;;;21.75;11.95;;;;;;;15.29;41.90;151127.22;5058796;28;20325;-67
2023/04/10 07:07:23;;;;;;;21.40;13.60;;;;;;;15.20;41.41;151105.34;5061833;28;20178;-67
2023/04/10 07:09:49;;;;;;;18.83;11.60;;;;;;;15.82;40.51;151259.88;5058379;28;20036;-69
2023/04/10 07:12:15;;;;;;;24.85;11.95;;;;;;;16.26;40.19;151369.28;5045884;28;20021;-68
2023/04/10 07:14:41;;;;;;;23.38;12.45;;;;;;;16.70;38.37;151480.06;5048898;28;20037;-67
2023/04/10 07:17:07;;;;;;;20.27;10.80;;;;;;;16.98;37.79;151549.72;5063775;28;20056;-67
2023/04/10 07:19:33;;;;;;;20.33;11.90;;;;;;;16.89;38.23;151527.81;5067439;28;20044;-67
2023/04/10 07:21:59;;;;;;;19.60;11.10;;;;;;;16.77;38.74;151498.09;5064563;28;20037;-68
2023/04/10 07:24:25;;;;;;;18.05;11.82;;;;;;;16.63;37.78;151462.03;5045822;28;20037;-66
2023/04/10 07:26:51;;;;;;;25.58;14.18;;;;;;;15.85;38.30;151268.88;5045653;28;20089;-67
2023/04/10 07:29:17;;;;;;;20.48;11.68;;;;;;;15.91;38.94;151283.03;5054906;28;20044;-66
2023/04/10 07:31:42;;;;;;;20.60;12.68;;;;;;;15.27;39.68;151122.09;5072875;28;20059;-67
2023/04/10 07:34:10;;;;;;;22.65;12.40;;;;;;;15.64;39.80;151216.03;5085094;28;20086;-67
2023/04/10 07:36:36;;;;;;;22.02;12.43;;;;;;;15.69;40.95;151228.91;5065166;28;20285;-68
2023/04/10 07:39:01;;;;;;;22.25;14.35;;;;;;;15.00;40.37;151056.44;5064842;28;20036;-66
2023/04/10 07:41:27;;;;;;;19.98;13.25;;;;;;;15.13;40.71;151087.31;5064868;28;20028;-67
2023/04/10 07:43:53;;;;;;;24.80;13.57;;;;;;;15.29;39.84;151128.53;5058677;28;20057;-67
2023/04/10 07:46:18;;;;;;;22.08;13.35;;;;;;;15.45;39.89;151167.09;5045088;28;20033;-66
2023/04/10 07:48:46;;;;;;;20.08;13.38;;;;;;;15.55;39.95;151192.88;5044802;28;20048;-66
2023/04/10 07:51:11;;;;;;;23.08;13.63;;;;;;;15.54;40.70;151190.28;5043892;28;20218;-68
2023/04/10 07:53:37;;;;;;;25.80;14.02;;;;;;;15.34;39.74;151141.38;5052723;28;20025;-67
2023/04/10 07:56:03;;;;;;;21.52;13.45;;;;;;;15.50;40.67;151180.00;5051729;28;20029;-66
2023/04/10 07:58:28;;;;;;;24.95;13.85;;;;;;;15.52;40.30;151186.44;5062086;28;20045;-68
2023/04/10 08:00:54;;;;;;;24.95;15.32;;;;;;;15.47;40.77;151172.28;5044784;28;20072;-66
2023/04/10 08:03:20;;;;;;;30.55;17.00;;;;;;;15.47;39.77;151172.28;5062672;28;20087;-67
2023/04/10 08:05:45;;;;;;;23.83;12.90;;;;;;;15.29;40.10;151127.22;5051088;28;20021;-67
2023/04/10 08:08:11;;;;;;;15.82;11.50;;;;;;;15.06;40.00;151070.59;5053130;28;20029;-68
2023/04/10 08:10:37;;;;;;;17.23;10.82;;;;;;;14.99;40.39;151053.88;5060741;28;20108;-66
2023/04/10 08:13:04;;;;;;;21.15;11.27;;;;;;;15.15;40.66;151092.50;5044626;28;20294;-67
2023/04/10 08:15:29;;;;;;;15.60;11.38;;;;;;;14.74;40.66;150989.56;5063903;28;20029;-67
2023/04/10 08:17:55;;;;;;;16.73;11.50;;;;;;;14.87;40.97;151021.72;5059275;28;20025;-67
2023/04/10 08:20:21;;;;;;;16.55;11.25;;;;;;;15.01;40.85;151057.75;5064360;28;20044;-67
2023/04/10 08:22:46;;;;;;;14.50;11.32;;;;;;;14.96;41.47;151046.19;5059122;28;20226;-66
2023/04/10 08:25:12;;;;;;;19.88;11.30;;;;;;;14.90;41.46;151030.72;5044417;28;20313;-66
2023/04/10 08:27:38;;;;;;;22.80;12.63;;;;;;;14.87;40.80;151023.00;5063959;28;20041;-67
2023/04/10 08:30:04;;;;;;;18.65;11.25;;;;;;;14.84;41.97;151015.28;5051939;28;20215;-67
2023/04/10 08:32:30;;;;;;;19.55;12.20;;;;;;;14.76;41.58;150994.69;5078694;28;20096;-66
2023/04/10 08:34:55;;;;;;;18.25;12.77;;;;;;;14.87;41.58;151023.00;5077729;28;20029;-66
2023/04/10 08:37:21;;;;;;;25.23;12.50;;;;;;;14.88;41.97;151024.25;5078066;28;20048;-66
2023/04/10 08:39:47;;;;;;;16.40;12.18;;;;;;;14.90;41.99;151029.44;5044076;28;20025;-66
2023/04/10 08:42:13;;;;;;;15.15;11.82;;;;;;;14.89;41.75;151026.84;5047771;28;20043;-67
2023/04/10 08:44:40;;;;;;;19.30;12.88;;;;;;;14.97;41.16;151048.72;5063674;28;20071;-68
2023/04/10 08:47:08;;;;;;;21.95;12.80;;;;;;;15.05;42.49;151066.72;5056262;28;20042;-68
2023/04/10 08:49:46;;;;;;;15.25;13.18;;;;;;;15.05;41.86;151068.03;5028948;28;20029;-67
2023/04/10 08:52:20;;;;;;;23.20;12.85;;;;;;;15.20;42.44;151105.34;5054536;28;20127;-68
2023/04/10 08:54:49;;;;;;;25.10;13.32;;;;;;;15.19;42.24;151102.75;5048453;28;20021;-67
2023/04/10 08:57:19;;;;;;;22.75;14.13;;;;;;;15.27;42.02;151122.09;5046597;28;20025;-67
2023/04/10 08:59:53;;;;;;;22.20;13.23;;;;;;;15.25;41.62;151116.91;5056161;28;20036;-68
2023/04/10 09:02:19;;;;;;;18.45;13.02;;;;;;;15.19;40.81;151102.75;5054019;28;20021;-68
2023/04/10 09:04:50;;;;;;;16.55;12.68;;;;;;;15.44;41.26;151164.56;5047984;28;20033;-68
2023/04/10 09:07:16;;;;;;;23.52;15.40;;;;;;;15.09;41.60;151077.03;5061877;28;20025;-67
2023/04/10 09:09:42;;;;;;;33.78;15.50;;;;;;;15.18;42.00;151100.22;5042264;28;20194;-67
2023/04/10 09:12:08;;;;;;;23.55;14.60;;;;;;;15.25;40.47;151118.22;5058853;28;20035;-67
2023/04/10 09:14:36;;;;;;;20.35;14.18;;;;;;;15.39;40.19;151153.00;5052211;28;20033;-68
2023/04/10 09:17:10;;;;;;;22.02;12.95;;;;;;;15.58;41.05;151200.59;5049922;28;20032;-67
2023/04/10 09:19:36;;;;;;;17.75;12.45;;;;;;;15.64;41.00;151216.03;5060186;28;20036;-67
2023/04/10 09:22:02;;;;;;;21.13;14.52;;;;;;;15.52;39.67;151185.16;5043239;28;20029;-67
2023/04/10 09:24:27;;;;;;;19.13;13.30;;;;;;;15.62;40.30;151209.56;5042843;28;20321;-66
2023/04/10 09:26:54;;;;;;;21.05;12.98;;;;;;;15.52;40.68;151185.16;5072052;28;20032;-67
2023/04/10 09:29:19;;;;;;;16.67;11.85;;;;;;;15.53;39.94;151187.69;5053707;28;20037;-65
2023/04/10 09:31:45;;;;;;;23.40;13.13;;;;;;;15.45;40.59;151168.41;5069128;28;20036;-65
2023/04/10 09:34:17;;;;;;;22.20;12.27;;;;;;;15.47;40.60;151172.28;5083166;28;20029;-65
2023/04/10 09:36:53;;;;;;;17.45;12.32;;;;;;;15.14;39.67;151089.91;5053789;28;20029;-66
2023/04/10 09:39:18;;;;;;;17.17;11.40;;;;;;;15.17;39.60;151097.63;5062449;28;20028;-67
2023/04/10 09:41:53;;;;;;;19.85;11.93;;;;;;;15.23;39.69;151113.06;5050553;28;20047;-65
2023/04/10 09:44:31;;;;;;;18.38;11.75;;;;;;;15.21;40.92;151107.94;5051471;28;20029;-67
2023/04/10 09:47:18;;;;;;;18.25;11.25;;;;;;;15.25;40.07;151116.91;5056884;28;20029;-65
2023/04/10 09:49:55;;;;;;;16.55;11.15;;;;;;;15.46;39.93;151171.00;5046401;28;20025;-64
2023/04/10 09:52:21;;;;;;;20.27;11.65;;;;;;;15.60;40.19;151205.72;5062970;28;20029;-65
2023/04/10 09:54:47;;;;;;;22.83;12.02;;;;;;;15.63;39.26;151213.44;5062854;28;20091;-66
2023/04/10 09:57:18;;;;;;;18.75;11.27;;;;;;;15.66;39.42;151221.19;5060810;28;20039;-65
2023/04/10 09:59:49;;;;;;;19.07;11.80;;;;;;;15.78;39.72;151249.53;5062437;28;20096;-65
2023/04/10 10:02:16;;;;;;;16.58;10.77;;;;;;;16.00;38.85;151304.91;5054567;28;20093;-65
2023/04/10 10:04:45;;;;;;;16.17;11.25;;;;;;;16.08;39.34;151325.53;5046115;28;20249;-65
2023/04/10 10:07:11;;;;;;;19.00;12.82;;;;;;;15.94;37.93;151290.75;5062514;28;20044;-65
2023/04/10 10:09:37;;;;;;;18.58;12.27;;;;;;;15.58;38.33;151199.31;5042991;28;20021;-64
2023/04/10 10:12:05;;;;;;;16.17;12.90;;;;;;;16.01;38.93;151308.78;5042470;28;20119;-66
2023/04/10 10:14:35;;;;;;;13.98;11.23;;;;;;;16.04;37.50;151315.22;5042714;28;20053;-67
2023/04/10 10:17:06;;;;;;;18.77;11.90;;;;;;;15.92;37.83;151285.63;5056390;28;20032;-67
2023/04/10 10:19:40;;;;;;;;;;;;;;;16.07;38.87;151321.66;5063777;28;20021;-65
2023/04/10 10:22:08;;;;;;;16.48;11.43;;;;;;;16.17;37.99;151347.41;5046677;28;19908;-66
2023/04/10 10:24:37;;;;;;;23.90;12.57;;;;;;;16.35;37.71;151393.78;5046217;28;20074;-64
2023/04/10 10:27:06;;;;;;;18.65;11.85;;;;;;;16.12;37.56;151335.84;5060754;28;20032;-66
2023/04/10 10:29:35;;;;;;;20.40;12.20;;;;;;;16.38;37.61;151400.22;5057111;28;20306;-66
2023/04/10 10:32:04;;;;;;;22.95;13.00;;;;;;;16.29;37.79;151378.34;5065343;28;20041;-65
2023/04/10 10:34:30;;;;;;;18.38;11.90;;;;;;;16.13;38.30;151338.41;5052027;28;20029;-65
2023/04/10 10:36:57;;;;;;;18.45;12.40;;;;;;;15.98;39.10;151301.06;5062998;28;20056;-66
2023/04/10 10:39:40;;;;;;;16.67;11.85;;;;;;;16.30;38.65;151380.88;5059592;28;20055;-66
2023/04/10 10:42:21;;;;;;;20.38;12.40;;;;;;;16.44;38.23;151414.38;5057925;28;20247;-67
2023/04/10 10:44:54;;;;;;;22.15;13.43;;;;;;;16.21;38.48;151357.72;5051026;28;20033;-67
2023/04/10 10:47:26;;;;;;;15.50;12.27;;;;;;;16.32;38.54;151386.06;5046745;28;20376;-66
2023/04/10 10:49:54;;;;;;;17.02;12.68;;;;;;;16.28;38.38;151374.47;5056937;28;20321;-65
2023/04/10 10:52:43;;;;;;;17.70;12.57;;;;;;;16.25;38.71;151368.03;5049587;28;20418;-68
2023/04/10 10:55:21;;;;;;;19.08;14.70;;;;;;;16.29;38.26;151377.00;5055863;28;20024;-69
2023/04/10 10:57:54;;;;;;;18.85;11.93;;;;;;;16.15;38.01;151343.53;5045669;28;20036;-65
2023/04/10 11:00:21;;;;;;;16.65;12.80;;;;;;;16.21;38.88;151358.97;5062031;28;20217;-66
2023/04/10 11:03:09;;;;;;;15.88;11.90;;;;;;;16.44;38.65;151415.66;5065419;28;20123;-66
2023/04/10 11:05:51;;;;;;;17.70;12.25;;;;;;;16.32;37.78;151384.78;5055256;28;20217;-65
2023/04/10 11:08:34;;;;;;;15.43;11.35;;;;;;;15.89;38.04;151277.91;5053396;28;20029;-64
2023/04/10 11:11:14;;;;;;;18.40;11.95;;;;;;;15.62;39.22;151210.91;5059885;28;20032;-64
2023/04/10 11:14:01;;;;;;;13.20;10.70;;;;;;;15.62;39.15;151210.91;5045710;28;20029;-65
2023/04/10 11:16:47;;;;;;;19.38;11.35;;;;;;;15.60;38.40;151205.72;5053564;28;20036;-65